Kagoshima Airport
RJFK : rendu visible

Aérodrome :











RETROUVEZ-NOUS SUR...

 
LOGIN :

S'inscrire | Disclaimer

   EN    FR    IT 

 









Légende :    VFR   VFR Marginal   IFR   IFR Intensif   IFR Très Intensif
Visi : 
Plafond : 
>= 8 km
>= 3000ft
5 à 8 km
1000 à 3000 ft
1500m à 5 km
500 à 1000 ft
800 à 1500m
200 à 500 ft
< 800m
< 200 ft
Symboles :   Orages  Brouillard  Fortes neiges  Fortes précipitations  Vent > 20 kt






- Altitude de l'aérodrome : 906 ft
- Code IATA : KOJ


RJFK - Kagoshima

DERNIER METAR :
  • 070200Z 35007KT 9999 FEW030 BKN120 07/01 Q1024 RMK 1CU030 7AC120 A3026 VOLCANIC ASH CLOUD S

METARs EXPIRÉS :
  • 070100Z 35008KT 9999 FEW050 BKN120 06/02 Q1025 RMK 2SC050 7AC120 A3028 VOLCANIC ASH CLOUD S
  • 070000Z 36007KT 9999 SCT050 BKN120 05/02 Q1024 RMK 3SC050 7AC120 A3025 MOD TURB OBS AT 2331Z 30NM E OF RJFK BTN 13000FT AND 10000FT IN DES B738 VOLCANIC ASH CLOUD S

TAF TAF RJFK
Valide du 07 à 00h jusqu'au 08 à 06h UTC


062310Z 0700/0806 34011KT 9999 FEW020 SCT050
BECMG 0803/0806 13003KT



MET'MAP, la Météo Aéronautique d'un coup d'oeil ! - Copyright ORBIFLY Décembre 2007 - Disclaimer

ORBIFLY MET'MAP TEAM :

Programmation & Développement : Alexandra Zaïnal
Sur une idée originale de : Baudouin d'Aumeries
Assistance à la programmation : Marc-Olivier Méhu
Soutien technique & logistique : Manuel Goepfert

Contact : metmap@orbifly.com




SOURCES & CREDITS :

   NOAA       Earth
Advisory